YAYE

Details ICAO YAYE (AYQ)
Name Ayers Rock
Region Australia
Timezone Australia/Darwin (UTC+9.5)
Plans Departing 239
Arriving 323
Stats Elevation 1,625 ft / 495 m (AMSL)
Location -25.185600° 130.977000°
Runways 1
Magnetic Variation 3.747° E
Sunrise 2021-02-24 21:09:31 UTC / 2021-02-25 06:39:31 Local
Sunset 2021-02-25 09:51:50 UTC / 2021-02-25 19:21:50 Local
Advertisement - Login to hide

Runways

ID Width Length Bearing (true/mag) Surface Threshold Overrun Markings Lighting
12 98 ft / 30 m 8,535 ft / 2,601 m 129.70° / 125.95° ASPHALT 0 ft / 0 m 0 ft / 0 m PREC-APP EDGE THRESHOLD ALSF-II
30 98 ft / 30 m 8,535 ft / 2,601 m 309.69° / 305.94° ASPHALT 0 ft / 0 m 0 ft / 0 m PREC-APP EDGE THRESHOLD ALSF-II

Map

Weather


0- 5 10 15 20 25 30 35+ Temperature / °C

Clouds and Precipitation
Forecast for 2021-02-24 18:00 UTC. Updated 2 hours ago

Ground ~20,000 ft ~40,000 ft Winds

METAR

YAYE 241700Z AUTO 15005KT 9999 // NCD 20/02 Q1013

TAF

Not found

Frequencies

Unicom 126.90 MHz AYERS ROCK MULT
Recorded 126.55 MHz YAYE ATIS
Unicom 121.85 MHz MELBOURNE CENTRE MULT
Unicom 120.60 MHz ACTIVATE LIGHTS ONLY MULT
Warning: Do not use this data for real-world aviation or navigation. No guarantee of current accuracy is given.